地図

経路データ

SID SEASON NUMBER BASIN SUBBASIN NAME ISO_TIME NATURE LAT LON WMO_WIND WMO_PRES WMO_AGENCY TRACK_TYPE DIST2LAND LANDFALL IFLAG USA_AGENCY USA_ATCF_ID USA_LAT USA_LON USA_RECORD USA_STATUS USA_WIND USA_PRES USA_SSHS USA_R34_NE USA_R34_SE USA_R34_SW USA_R34_NW USA_R50_NE USA_R50_SE USA_R50_SW USA_R50_NW USA_R64_NE USA_R64_SE USA_R64_SW USA_R64_NW USA_POCI USA_ROCI USA_RMW USA_EYE TOKYO_LAT TOKYO_LON TOKYO_GRADE TOKYO_WIND TOKYO_PRES TOKYO_R50_DIR TOKYO_R50_LONG TOKYO_R50_SHORT TOKYO_R30_DIR TOKYO_R30_LONG TOKYO_R30_SHORT TOKYO_LAND CMA_LAT CMA_LON CMA_CAT CMA_WIND CMA_PRES HKO_LAT HKO_LON HKO_CAT HKO_WIND HKO_PRES NEWDELHI_LAT NEWDELHI_LON NEWDELHI_GRADE NEWDELHI_WIND NEWDELHI_PRES NEWDELHI_CI NEWDELHI_DP NEWDELHI_POCI REUNION_LAT REUNION_LON REUNION_TYPE REUNION_WIND REUNION_PRES REUNION_TNUM REUNION_CI REUNION_RMW REUNION_R34_NE REUNION_R34_SE REUNION_R34_SW REUNION_R34_NW REUNION_R50_NE REUNION_R50_SE REUNION_R50_SW REUNION_R50_NW REUNION_R64_NE REUNION_R64_SE REUNION_R64_SW REUNION_R64_NW BOM_LAT BOM_LON BOM_TYPE BOM_WIND BOM_PRES BOM_TNUM BOM_CI BOM_RMW BOM_R34_NE BOM_R34_SE BOM_R34_SW BOM_R34_NW BOM_R50_NE BOM_R50_SE BOM_R50_SW BOM_R50_NW BOM_R64_NE BOM_R64_SE BOM_R64_SW BOM_R64_NW BOM_ROCI BOM_POCI BOM_EYE BOM_POS_METHOD BOM_PRES_METHOD NADI_LAT NADI_LON NADI_CAT NADI_WIND NADI_PRES WELLINGTON_LAT WELLINGTON_LON WELLINGTON_WIND WELLINGTON_PRES DS824_LAT DS824_LON DS824_STAGE DS824_WIND DS824_PRES TD9636_LAT TD9636_LON TD9636_STAGE TD9636_WIND TD9636_PRES TD9635_LAT TD9635_LON TD9635_WIND TD9635_PRES TD9635_ROCI NEUMANN_LAT NEUMANN_LON NEUMANN_CLASS NEUMANN_WIND NEUMANN_PRES MLC_LAT MLC_LON MLC_CLASS MLC_WIND MLC_PRES USA_GUST BOM_GUST BOM_GUST_PER REUNION_GUST REUNION_GUST_PER USA_SEAHGT USA_SEARAD_NE USA_SEARAD_SE USA_SEARAD_SW USA_SEARAD_NW STORM_SPEED STORM_DIR
1977347S08097 1978 117 SI WA CELIMENE:SAM 1977-12-13 00:00:00 TS -7.60000 96.5000 20 1006 bom main 710 710 ______O__O____ -1 -7.60000 96.5000 20 20 1006 1.00000 -7.60000 96.5000 TC 15 1006 16 256
1977347S08097 1978 117 SI WA CELIMENE:SAM 1977-12-13 03:00:00 TS -7.80140 95.7001 20 1006 bom main 770 770 ______O__P____ -1 -7.80000 95.7000 20 20 1006 1.00000 -7.80280 95.7002 TC 17 1005 16 256
1977347S08097 1978 117 SI WA CELIMENE:SAM 1977-12-13 06:00:00 TS -7.98572 94.9429 25 1004 bom main 833 833 ______O__O__O_ -1 -8.00000 94.9000 20 25 1004 1.50000 -8.00000 94.9000 TC 20 1004 -7.90000 95.2000 TC 20 1004 16 256
1977347S08097 1978 117 SI WA CELIMENE:SAM 1977-12-13 09:00:00 TS -8.17798 94.1720 25 1002 bom main 895 895 ______O__P__P_ -1 -8.20000 94.1000 20 25 1002 1.50000 -8.19234 94.0999 TC 22 1003 -8.10524 94.4602 TC 22 1003 16 256
1977347S08097 1978 117 SI WA CELIMENE:SAM 1977-12-13 12:00:00 TS -8.37273 93.4091 25 1003 bom main 966 966 ______O__O__O_ -1 -8.40000 93.3000 20 25 1003 2.00000 -8.40000 93.3000 TC 25 1003 -8.30000 93.7000 TC 25 1003 16 255
1977347S08097 1978 117 SI WA CELIMENE:SAM 1977-12-13 15:00:00 TS -8.57324 92.6357 25 1005 bom main 1041 1041 ______O__P__P_ -1 -8.60000 92.5000 20 25 1005 2.00000 -8.63484 92.4999 TC 22 1003 -8.48488 92.9073 TC 25 1003 16 254
1977347S08097 1978 117 SI WA CELIMENE:SAM 1977-12-13 18:00:00 TS -8.83333 91.8333 25 1004 bom main 1118 1118 ______O__O__O_ -1 -8.90000 91.7000 20 25 1004 2.00000 -8.90000 91.7000 TC 20 1004 -8.70000 92.1000 TC 25 1003 17 251
1977347S08097 1978 117 SI WA CELIMENE:SAM 1977-12-13 21:00:00 TS -9.13832 91.0159 25 1003 bom main 1205 1205 ______O__P__P_ -1 -9.20000 90.9000 20 25 1003 2.00000 -9.21500 90.8701 TC 22 1003 -8.99996 91.2776 TC 25 1003 17 249
1977347S08097 1978 117 SI WA CELIMENE:SAM 1977-12-14 00:00:00 TS -9.43333 90.2333 25 1003 bom main 1293 1293 ______O__O__O_ -1 -9.50000 90.1000 20 25 1003 2.00000 -9.50000 90.1000 TC 25 1003 -9.30000 90.5000 TC 25 1003 15 251
1977347S08097 1978 117 SI MM CELIMENE:SAM 1977-12-14 03:00:00 TS -9.63660 89.5408 25 1002 bom main 1365 1365 ______O__P__P_ -1 -9.70000 89.4000 20 25 1002 2.00000 -9.67988 89.4324 TC 27 1002 -9.52992 89.7900 TC 25 1002 13 255
1977347S08097 1978 117 SI MM CELIMENE:SAM 1977-12-14 06:00:00 TS -9.76667 89.0000 25 1001 bom main 1422 1422 ______O__O__O_ -1 -9.80000 88.9000 20 25 1001 2.00000 -9.80000 88.9000 TC 30 1001 -9.70000 89.2000 TC 25 1001 10 256
1977347S08097 1978 117 SI MM CELIMENE:SAM 1977-12-14 09:00:00 TS -9.87906 88.5841 25 1001 bom main 1463 1463 ______O__P__P_ -1 -9.90000 88.5000 20 25 1001 2.00000 -9.91484 88.5050 TC 27 1001 -9.82234 88.7474 TC 25 1001 8 255
1977347S08097 1978 117 SI MM CELIMENE:SAM 1977-12-14 12:00:00 TS -9.96667 88.2667 25 1002 bom main 1496 1496 ______O__O__O_ -1 -10.0000 88.2000 20 25 1002 2.00000 -10.0000 88.2000 TC 25 1002 -9.90000 88.4000 TC 25 1001 6 259
1977347S08097 1978 117 SI MM CELIMENE:SAM 1977-12-14 15:00:00 TS -9.99997 87.9541 25 1000 bom main 1522 1522 ______O__P__P_ -1 -10.0000 87.9000 20 25 1000 2.00000 -10.0500 87.8849 TC 25 1002 -9.94995 88.0775 TC 27 1000 6 260
1977347S08097 1978 117 SI MM CELIMENE:SAM 1977-12-14 18:00:00 TS -10.0667 87.6667 25 1002 bom main 1555 1555 ______O__O__O_ -1 -10.1000 87.6000 20 25 1002 2.00000 -10.1000 87.6000 TC 25 1002 -10.0000 87.8000 TC 30 1000 6 253
1977347S08097 1978 117 SI MM CELIMENE:SAM 1977-12-14 21:00:00 TS -10.1641 87.3925 30 999 bom main 1588 1588 ______O__P__P_ -1 -10.2000 87.3000 20 30 999 2.50000 -10.2000 87.3350 TC 27 1000 -10.0925 87.5425 TC 30 999 5 248
1977347S08097 1978 117 SI MM CELIMENE:SAM 1977-12-15 00:00:00 TS -10.2667 87.1667 30 999 bom main 1613 1613 ______O__O__O_ -1 -10.3000 87.1000 20 30 999 2.50000 -10.3000 87.1000 TC 30 999 -10.2000 87.3000 TC 30 999 5 251
1977347S08097 1978 117 SI MM CELIMENE:SAM 1977-12-15 03:00:00 TS -10.3192 86.9400 30 998 bom main 1639 1639 ______O__P__P_ -1 -10.3000 86.9000 20 30 998 2.50000 -10.3500 86.8850 TC 32 997 -10.3075 87.0350 TC 32 998 4 262
1977347S08097 1978 117 SI MM CELIMENE:SAM 1977-12-15 06:00:00 TS -10.3200 86.7667 30 996 bom main 1648 1648 O_____O__OO_O_ jtwc_sh SH061978 -10.0000 86.9000 -1 -10.4000 86.7000 20 30 996 2.50000 -10.4000 86.7000 TC 35 996 -10.0000 86.9000 2 -10.4000 86.8000 TC 35 997 3 261
1977347S08097 1978 117 SI MM CELIMENE:SAM 1977-12-15 09:00:00 TS -10.3722 86.5903 35 995 bom main 1673 1673 P_____O__PP_P_ SH061978 -10.1600 86.6526 -1 -10.5000 86.5000 30 35 995 3.00000 -10.5000 86.5500 TC 37 995 -10.1299 86.6377 2 -10.4500 86.6350 TC 37 996 4 250
1977347S08097 1978 117 SI MM CELIMENE:SAM 1977-12-15 12:00:00 TS -10.4463 86.4162 35 995 bom main 1691 1691 O_____O__OP_O_ jtwc_sh SH061978 -10.3000 86.4000 -1 -10.6000 86.4000 30 35 995 3.00000 -10.6000 86.4000 TC 40 995 -10.2577 86.3802 2 -10.5000 86.5000 TC 40 995 4 251
1977347S08097 1978 117 SI MM CELIMENE:SAM 1977-12-15 15:00:00 TS -10.5090 86.1921 35 995 bom main 1715 1715 P_____O__PP_P_ SH061978 -10.4075 86.1425 -1 -10.6000 86.2000 30 35 995 3.00000 -10.6575 86.1925 TC 40 995 -10.3817 86.1326 2 -10.6000 86.3425 TC 40 995 5 250
1977347S08097 1978 117 SI MM CELIMENE:SAM 1977-12-15 18:00:00 TS -10.6000 85.9833 35 995 bom main 1740 1740 O_____O__OO_O_ jtwc_sh SH061978 -10.5000 85.9000 -1 -10.7000 86.0000 30 35 995 3.00000 -10.7000 86.0000 TC 40 995 -10.5000 85.9000 2 -10.7000 86.2000 TC 40 995 4 247
1977347S08097 1978 117 SI MM CELIMENE:SAM 1977-12-15 21:00:00 TS -10.6635 85.8297 35 995 bom main 1764 1764 P_____O__PP_P_ SH061978 -10.6000 85.6925 -1 -10.7000 85.9000 30 35 995 3.00000 -10.7275 85.8999 TC 40 994 -10.6112 85.6856 2 -10.7425 86.1075 TC 40 994 3 243
1977347S08097 1978 117 SI MM CELIMENE:SAM 1977-12-16 00:00:00 TS -10.7525 85.6808 40 994 bom main 1779 1779 O_____O__OP_O_ jtwc_sh SH061978 -10.7000 85.5000 -1 -10.8000 85.8000 30 40 994 3.00000 -10.8000 85.8000 TC 40 994 -10.7149 85.4849 2 -10.8000 86.0000 TC 40 994 4 237
1977347S08097 1978 117 SI MM CELIMENE:SAM 1977-12-16 03:00:00 TS -10.8860 85.4870 40 994 bom main 1804 1804 P_____O__PP_P_ SH061978 -10.8000 85.3000 -1 -11.0000 85.6000 30 40 994 3.00000 -10.9775 85.6150 TC 40 993 -10.8112 85.2918 2 -10.9275 85.8150 TC 40 993 5 238
1977347S08097 1978 117 SI MM CELIMENE:SAM 1977-12-16 06:00:00 TS -11.0120 85.2520 45 993 bom main 1828 1828 O____OO__OO_O_ jtwc_sh SH061978 -10.9000 85.1000 -1 -10.5000 84.5000 99 9.90000 -11.2000 85.4000 30 45 993 3.00000 -11.2000 85.4000 TC 40 993 -10.9000 85.1000 2 -11.1000 85.6000 TC 40 993 5 241
1977347S08097 1978 117 SI MM CELIMENE:SAM 1977-12-16 09:00:00 TS -11.1396 85.0240 45 992 bom main 1862 1862 P____PO__PP_P_ SH061978 -11.0075 84.9000 -1 -10.6600 84.3450 99 -11.4000 85.2000 30 45 992 3.00000 -11.4000 85.2000 TC 42 992 -10.9700 84.8837 2 -11.2925 85.4000 TC 42 992 5 240
1977347S08097 1978 117 SI MM CELIMENE:SAM 1977-12-16 12:00:00 TS -11.2645 84.8029 45 992 bom main 1892 1892 O____OO__OP_O_ jtwc_sh SH061978 -11.1000 84.7000 -1 -10.8000 84.2000 99 9.90000 -11.6000 85.0000 30 45 992 3.00000 -11.6000 85.0000 TC 45 992 -11.0350 84.6699 2 -11.5000 85.2000 TC 45 992 5 241
1977347S08097 1978 117 SI MM CELIMENE:SAM 1977-12-16 15:00:00 TS -11.3736 84.5862 45 992 bom main 1917 1917 P____PO__PP_P_ SH061978 -11.1500 84.4925 -1 -10.9075 84.0775 99 -11.8000 84.8000 30 45 992 3.00000 -11.8000 84.7850 TC 45 992 -11.1075 84.4712 2 -11.7000 84.9850 TC 45 992 4 238
1977347S08097 1978 117 SI MM CELIMENE:SAM 1977-12-16 18:00:00 TS -11.5000 84.4143 45 992 bom main 1941 1941 O____OO__OO_O_ jtwc_sh SH061978 -11.2000 84.3000 -1 -11.0000 84.0000 99 9.90000 -12.0000 84.6000 30 45 992 3.00000 -12.0000 84.6000 TC 45 992 -11.2000 84.3000 2 -11.9000 84.8000 TC 45 992 4 227
1977347S08097 1978 117 SI MM CELIMENE:SAM 1977-12-16 21:00:00 TS -11.6397 84.2882 50 991 bom main 1956 1956 P____PO__PP_P_ SH061978 -11.2775 84.1275 -1 -11.0850 83.9850 99 -12.2000 84.5000 30 50 991 3.50000 -12.2150 84.4775 TC 45 991 -11.3080 84.1146 2 -12.1150 84.6850 TC 45 991 4 216
1977347S08097 1978 117 SI MM CELIMENE:SAM 1977-12-17 00:00:00 TS -11.7914 84.1951 50 990 bom main 1978 1978 O____OO__OP_O_ jtwc_sh SH061978 -11.4000 84.0000 -1 -11.2000 84.0000 99 9.90000 -12.4000 84.4000 30 50 990 3.50000 -12.4000 84.4000 TC 45 990 -11.4398 83.9654 2 -12.3000 84.6000 TC 45 990 3 210
1977347S08097 1978 117 SI MM CELIMENE:SAM 1977-12-17 03:00:00 TS -11.9399 84.1152 50 992 bom main 1993 1993 P____PO__PP_P_ SH061978 -11.5775 83.8976 -1 -11.3850 83.9925 99 -12.5000 84.3000 30 50 992 3.50000 -12.5225 84.3425 TC 45 991 -11.6017 83.8835 2 -12.4150 84.4925 TC 45 990 3 198
1977347S08097 1978 117 SI MM CELIMENE:SAM 1977-12-17 06:00:00 TS -12.1000 84.1000 50 992 bom main 2005 2005 O____OO__OO_O_ jtwc_sh SH061978 -11.8000 83.9000 -1 -11.6000 84.0000 3 44 984 3.50000 3.50000 -12.6000 84.3000 30 50 992 3.50000 -12.6000 84.3000 TC 45 992 -11.8000 83.9000 2 -12.5000 84.4000 TC 45 991 3 0
1977347S08097 1978 117 SI MM CELIMENE:SAM 1977-12-17 09:00:00 TS -12.2573 84.1379 50 992 bom main 2018 2009 P____PO__PP_P_ SH061978 -12.0350 84.0475 -1 -11.8225 84.0125 3 -12.6000 84.2000 30 50 992 3.50000 -12.6575 84.2500 TC 42 993 -12.0433 84.0652 2 -12.6075 84.3425 TC 42 992 4 157
1977347S08097 1978 117 SI MM CELIMENE:SAM 1977-12-17 12:00:00 TS -12.4315 84.2463 45 994 bom main 2016 2007 O____OO__OP_O_ jtwc_sh SH061978 -12.3000 84.3000 -1 -12.0000 84.1000 99 9.90000 -12.7000 84.2000 30 45 994 3.00000 -12.7000 84.2000 TC 40 994 -12.3204 84.3244 2 -12.7000 84.3000 TC 40 993 4 144
1977347S08097 1978 117 SI MM CELIMENE:SAM 1977-12-17 15:00:00 TS -12.5846 84.3795 40 996 bom main 2011 2009 P____PO__PP_P_ SH061978 -12.6001 84.5999 -1 -12.0726 84.3275 99 -12.7000 84.1000 30 40 996 3.00000 -12.7500 84.1575 TC 37 996 -12.6121 84.6214 2 -12.7575 84.2500 TC 37 994 4 139
1977347S08097 1978 117 SI MM CELIMENE:SAM 1977-12-17 18:00:00 TS -12.7429 84.5286 35 998 bom main 2009 2007 O____OO__OO_O_ jtwc_sh SH061978 -12.9000 84.9000 -1 -12.1000 84.6000 99 9.90000 -12.8000 84.1000 30 35 998 3.00000 -12.8000 84.1000 TC 35 998 -12.9000 84.9000 2 -12.8000 84.2000 TC 35 996 4 140
1977347S08097 1978 117 SI MM CELIMENE:SAM 1977-12-17 21:00:00 TS -12.8721 84.6228 35 998 bom main 2014 2005 P____PO__PP_P_ SH061978 -13.1575 85.1301 -1 -12.1125 84.8226 99 -12.8000 84.0000 30 35 998 3.00000 -12.8500 84.0000 TC 32 998 -13.1774 85.1193 2 -12.8500 84.1575 TC 35 997 3 151
1977347S08097 1978 117 SI MM CELIMENE:SAM 1977-12-18 00:00:00 TS -13.0207 84.6864 30 999 bom main 2012 2012 O____OO__OP_O_ jtwc_sh SH061978 -13.4000 85.3000 -1 -12.2000 85.0000 99 9.90000 -12.9000 83.9000 20 30 999 2.50000 -12.9000 83.9000 TC 30 999 -13.4449 85.3049 2 -12.9000 84.1000 TC 35 998 3 159
1977347S08097 1978 117 SI MM CELIMENE:SAM 1977-12-18 03:00:00 TS -13.1853 84.7461 30 1000 bom main 2026 2017 P____PO__PP_P_ SH061978 -13.6650 85.4375 -1 -12.4775 85.1599 99 -12.9000 83.9000 20 30 1000 2.50000 -12.9500 83.8500 TC 30 999 -13.6899 85.4380 2 -12.9500 84.0000 TC 32 998 3 171
1977347S08097 1978 117 SI MM CELIMENE:SAM 1977-12-18 06:00:00 TS -13.3571 84.7429 30 1000 bom main 2040 2040 O____OO__OO_O_ jtwc_sh SH061978 -13.9000 85.5000 -1 -12.8000 85.2000 3 36 991 3.00000 3.00000 -13.0000 83.8000 20 30 1000 2.50000 -13.0000 83.8000 TC 30 1000 -13.9000 85.5000 2 -13.0000 83.9000 TC 30 999 3 192
1977347S08097 1978 117 SI MM CELIMENE:SAM 1977-12-18 09:00:00 TS -13.4727 84.6840 30 1000 bom main 2047 2047 P____PO__PP_P_ SH061978 -14.0725 85.4875 -1 -13.0074 85.0750 3 -13.0000 83.7000 20 30 1000 2.50000 -13.0500 83.7000 TC 30 1000 -14.0568 85.4883 2 -13.0500 83.8500 TC 30 999 3 217
1977347S08097 1978 117 SI MM CELIMENE:SAM 1977-12-18 12:00:00 TS -13.5828 84.5722 30 1001 bom main 2062 2062 O____OO__OP_O_ jtwc_sh SH061978 -14.2000 85.4000 -1 -13.2000 84.8000 99 9.90000 -13.1000 83.6000 20 30 1001 2.50000 -13.1000 83.6000 TC 30 1001 -14.1799 85.4051 2 -13.1000 83.8000 TC 30 1000 3 229
1977347S08097 1978 117 SI MM CELIMENE:SAM 1977-12-18 15:00:00 TS -13.6779 84.4431 30 1002 bom main 2086 2086 P____PO__PP_P_ SH061978 -14.3000 85.2725 -1 -13.4576 84.4301 99 -13.1000 83.6000 20 30 1002 2.50000 -13.1500 83.5500 TC 27 1001 -14.2880 85.2694 2 -13.1500 83.7075 TC 27 1000 4 235
1977347S08097 1978 117 SI MM CELIMENE:SAM 1977-12-18 18:00:00 TS -13.7857 84.2714 30 1002 bom main 2102 2102 O____OO__OO_O_ jtwc_sh SH061978 -14.4000 85.1000 -1 -13.7000 84.0000 99 9.90000 -13.2000 83.5000 20 30 1002 2.50000 -13.2000 83.5000 TC 25 1002 -14.4000 85.1000 2 -13.2000 83.6000 TC 25 1001 4 239
1977347S08097 1978 117 SI MM CELIMENE:SAM 1977-12-18 21:00:00 TS -13.8846 84.0922 30 1002 bom main 2126 2126 P____PO__PP_P_ SH061978 -14.5425 84.9075 -1 -13.8650 83.5774 99 -13.2000 83.4000 20 30 1002 2.50000 -13.2451 83.4081 TC 25 1002 -14.5468 84.9450 2 -13.2500 83.5000 TC 25 1001 4 239
1977347S08097 1978 117 SI MM CELIMENE:SAM 1977-12-19 00:00:00 TS -14.0000 83.9086 25 1003 bom main 2149 2149 O____OO__OP_O_ jtwc_sh SH061978 -14.7000 84.7000 -1 -14.0000 83.2000 99 9.90000 -13.3000 83.3000 20 25 1003 2.00000 -13.3000 83.3000 TC 25 1003 -14.6999 84.7600 2 -13.3000 83.4000 TC 25 1002 4 233
1977347S08097 1978 117 SI MM CELIMENE:SAM 1977-12-19 03:00:00 TS -14.1090 83.7881 25 1003 bom main 2165 2165 P____PO__PP_P_ SH061978 -14.8499 84.5149 -1 -14.1048 82.9497 99 -13.4000 83.5000 20 25 1003 2.00000 -13.3625 83.2000 TC 26 1002 -14.8530 84.5449 2 -13.3425 83.2925 TC 25 1001 4 232
1977347S08097 1978 117 SI MM CELIMENE:SAM 1977-12-19 06:00:00 TS -14.2348 83.6009 main 2189 2189 O____OP__PO_O_ jtwc_sh SH061978 -15.0000 84.3000 -1 -14.3000 82.7000 3 36 991 3.00000 3.00000 -13.5001 83.3063 20 25 1001 -13.4437 83.0999 TC 27 1002 -15.0000 84.3000 2 -13.4000 83.2000 TC 25 1001 5 236
1977347S08097 1978 117 SI MM CELIMENE:SAM 1977-12-19 09:00:00 TS -14.3998 83.3465 25 1000 bom main 2228 2228 P____PO__PP_P_ SH061978 -15.1575 84.0150 -1 -14.7128 82.2332 3 -13.6000 83.0000 20 25 1000 2.00000 -13.5531 83.0000 TC 28 1001 -15.1405 84.0126 2 -13.4775 83.1500 TC 25 1001 6 233
1977347S08097 1978 117 SI MM CELIMENE:SAM 1977-12-19 12:00:00 TS -14.5818 83.1286 25 1001 bom main 2259 2259 O____OO__OP_O_ jtwc_sh SH061978 -15.3000 83.7000 -1 -15.2000 81.9000 99 9.90000 -13.7000 82.9000 20 25 1001 2.00000 -13.7000 82.9000 TC 30 1001 -15.2728 83.7001 2 -13.6000 83.1000 TC 25 1001 5 224
1977347S08097 1978 117 SI MM CELIMENE:SAM 1977-12-19 15:00:00 TS -14.7516 82.9933 25 1001 bom main 2281 2281 P____PO__PP_P_ SH061978 -15.4075 83.3775 -1 -15.6284 82.0192 99 -13.9000 82.8000 20 25 1001 2.00000 -13.8902 82.8081 TC 30 1000 -15.3936 83.3876 2 -13.7850 83.0150 TC 27 1000 4 219
1977347S08097 1978 117 SI MM CELIMENE:SAM 1977-12-19 18:00:00 TS -14.8769 82.8846 25 1000 bom main 2296 2296 O____OO__OO_O_ jtwc_sh SH061978 -15.5000 83.1000 -1 -16.0000 82.3000 99 9.90000 -14.1000 82.7000 20 25 1000 2.00000 -14.1000 82.7000 TC 30 1000 -15.5000 83.1000 2 -14.0000 82.9000 TC 30 1000 3 219
1977347S08097 1978 117 SI MM CELIMENE:SAM 1977-12-19 21:00:00 TS -14.9721 82.8125 30 999 bom main 2312 2312 P____PO__PP_P_ SH061978 -15.6074 82.9425 -1 -16.2067 82.3130 99 -14.3000 82.6000 20 30 999 2.50000 -14.3000 82.5724 TC 30 999 -15.6123 82.9727 2 -14.2000 82.7725 TC 30 999 3 229
1977347S08097 1978 117 SI MM CELIMENE:SAM 1977-12-20 00:00:00 TS -15.0846 82.6429 30 999 bom main 2336 2336 O____PO__OP_O_ jtwc_sh SH061978 -15.7000 82.8000 -1 -16.2711 82.1807 99 -14.5000 82.4000 20 30 999 2.50000 -14.5000 82.4000 TC 30 999 -15.7076 82.8575 2 -14.4000 82.6000 TC 30 999 4 234
1977347S08097 1978 117 SI MM CELIMENE:SAM 1977-12-20 03:00:00 TS -15.2247 82.4581 30 1001 bom main 2351 2351 P____PO__PP_P_ SH061978 -15.7721 82.6400 -1 -16.2202 81.9218 99 -14.7000 82.2000 20 30 1001 2.50000 -14.7148 82.2100 TC 27 1000 -15.7742 82.6636 2 -14.6149 82.3950 TC 27 1000 6 243
1977347S08097 1978 117 SI MM CELIMENE:SAM 1977-12-20 06:00:00 TS -15.3333 82.1333 30 1002 bom main 2380 2380 O____PO__OO_O_ jtwc_sh SH061978 -15.8000 82.3000 -1 -16.0806 81.5555 99 -14.9000 81.9000 20 30 1002 2.50000 -14.9000 81.9000 TC 25 1002 -15.8000 82.3000 2 -14.8000 82.1000 TC 25 1001 9 259
1977347S08097 1978 117 SI MM CELIMENE:SAM 1977-12-20 09:00:00 TS -15.3867 81.5703 30 1002 bom main 2388 2386 P____PO__PP_P_ SH061978 -15.7726 81.6475 -1 -15.8791 81.1007 99 -15.0000 81.4000 20 30 1002 2.50000 -15.0301 81.4025 TC 22 1003 -15.7703 81.6216 2 -14.9749 81.7029 TC 25 1002 12 268
1977347S08097 1978 117 SI MM CELIMENE:SAM 1977-12-20 12:00:00 TS -15.3830 80.8627 25 1004 bom main 2386 2375 O____PO__OP_O_ jtwc_sh SH061978 -15.7000 80.8000 -1 -15.6424 80.5766 99 -15.1000 80.8000 20 25 1004 2.00000 -15.1000 80.8000 TC 20 1004 -15.6981 80.7765 2 -15.0000 81.2000 TC 25 1003 14 274
1977347S08097 1978 117 SI MM CELIMENE:SAM 1977-12-20 15:00:00 TS -15.2961 80.1175 25 1006 bom main 2375 2355 P____PO__PP_P_ SH061978 -15.6002 79.8923 -1 -15.3973 80.0018 99 -15.1000 80.2000 20 25 1006 1.50000 -15.1221 80.2374 TC 17 1005 -15.6015 79.8683 2 -14.7526 80.6146 TC 30 15 277
1977347S08097 1978 117 SI MM CELIMENE:SAM 1977-12-20 18:00:00 TS -15.1909 79.3455 main 2345 2287 O____PO__OO_O_ jtwc_sh SH061978 -15.5000 79.0000 -1 -15.1710 79.3949 99 -15.1000 79.6000 20 25 1006 1.50000 -15.1000 79.6000 TC 15 1006 -15.5000 79.0000 2 -14.4000 80.0000 TC 35 15 279
1977347S08097 1978 117 SI MM CELIMENE:SAM 1977-12-20 21:00:00 TS -15.0746 78.6294 main 2277 2219 P____PO__PP_P_ SH061978 -15.4497 78.2477 -1 -14.9907 78.7739 99 -15.0000 78.9000 20 25 1006 1.50000 -15.0558 78.8374 TC 15 1006 -15.4242 78.2813 2 -14.0218 79.5015 TC 40 14 278
1977347S08097 1978 117 SI MM CELIMENE:SAM 1977-12-21 00:00:00 TS -15.0109 77.9384 reunion main 2209 2144 O____PO__OP_O_ jtwc_sh SH061978 -15.4000 77.6000 -1 -14.8837 78.1564 99 -15.0000 78.0000 20 25 1006 1.50000 -15.0000 78.0000 TC 15 1006 -15.3492 77.6229 2 -13.9000 78.9000 TC 45 13 271
1977347S08097 1978 117 SI MM CELIMENE:SAM 1977-12-21 03:00:00 TS -15.0607 77.2456 main 2134 2083 P____P____P_P_ SH061978 -15.2998 77.0050 -1 -14.8776 77.5595 99 TC -15.2745 77.0281 2 -14.3684 77.9444 TC 45 13 264
1977347S08097 1978 117 SI MM CELIMENE:SAM 1977-12-21 06:00:00 TS -15.1412 76.6471 36 991 reunion main 2073 2029 O____O____O_O_ jtwc_sh SH061978 -15.2000 76.5000 -1 -15.0000 77.0000 3 36 991 3.00000 3.00000 -15.2000 76.5000 2 -15.0000 77.0000 TC 45 991 10 262
1977347S08097 1978 117 SI MM CELIMENE:SAM 1977-12-21 09:00:00 TS -15.2037 76.1863 main 2029 1984 P____P____P_P_ SH061978 -15.1498 76.0776 -1 -15.2842 76.5027 3 -15.1119 76.0354 2 -15.3368 76.4317 TC 47 8 261
1977347S08097 1978 117 SI MM CELIMENE:SAM 1977-12-21 12:00:00 TS -15.2687 75.7963 reunion main 1984 1944 O____O____P_O_ jtwc_sh SH061978 -15.1000 75.7000 -1 -15.6000 76.0000 99 9.90000 -15.0264 75.6326 2 -15.6000 76.0000 TC 50 8 260
1977347S08097 1978 117 SI MM CELIMENE:SAM 1977-12-21 15:00:00 TS -15.3445 75.3726 main 1944 1900 P____P____P_P_ SH061978 -14.9999 75.2999 -1 -15.8849 75.4997 99 -14.9527 75.2635 2 -15.8849 75.4997 TC 47 8 260
1977347S08097 1978 117 SI MM CELIMENE:SAM 1977-12-21 18:00:00 TS -15.4200 74.9400 reunion main 1890 1845 O____O____O_O_ jtwc_sh SH061978 -14.9000 74.9000 -1 -16.2000 75.0000 99 9.90000 -14.9000 74.9000 2 -16.2000 75.0000 TC 45 9 257
1977347S08097 1978 117 SI MM CELIMENE:SAM 1977-12-21 21:00:00 TS -15.5428 74.5039 main 1845 1794 P____P____P_P_ SH061978 -14.8274 74.5000 -1 -16.5924 74.5000 99 -14.8744 74.5197 2 -16.5924 74.5000 TC 42 10 243
1977347S08097 1978 117 SI MM CELIMENE:SAM 1977-12-22 00:00:00 TS -15.8478 74.0569 reunion main 1794 1726 O____O____P_O_ jtwc_sh SH061978 -14.8000 74.1000 -1 -17.0000 74.0000 99 9.90000 -14.8710 74.1226 2 -17.0000 74.0000 TC 40 11 228
1977347S08097 1978 117 SI MM CELIMENE:SAM 1977-12-22 03:00:00 TS -16.3036 73.6134 main 1726 1656 P____P____P_P_ SH061978 -14.8326 73.7001 -1 -17.3945 73.5449 99 -14.8821 73.7141 2 -17.3945 73.5449 TC 35 14 221
1977347S08097 1978 117 SI MM CELIMENE:SAM 1977-12-22 06:00:00 TS -16.9364 73.0818 24 1000 reunion main 1656 1548 O____O____O_O_ jtwc_sh SH061978 -14.9000 73.3000 -1 -17.7000 73.0000 2 24 1000 2.00000 2.00000 -14.9000 73.3000 1 -17.7000 73.0000 TC 30 1000 20 220
1977347S08097 1978 117 SI MM CELIMENE:SAM 1977-12-22 09:00:00 TS -17.8527 72.2373 main 1536 1453 _____P______P_ SH061978 -1 -17.8527 72.2373 2 1 -17.8527 72.2373 TC 30 19 239
1977347S08097 1978 117 SI MM CELIMENE:SAM 1977-12-22 12:00:00 TS -17.9000 71.4000 reunion main 1453 1381 _____O______O_ -1 -17.9000 71.4000 99 9.90000 1 -17.9000 71.4000 TC 30 15 266
1977347S08097 1978 117 SI MM CELIMENE:SAM 1977-12-22 15:00:00 TS -17.9441 70.6802 main 1381 1299 _____P______P_ -1 -17.9441 70.6802 99 1 -17.9441 70.6802 TC 27 14 270
1977347S08097 1978 117 SI MM CELIMENE:SAM 1977-12-22 18:00:00 TS -17.9000 69.9000 reunion main 1299 1209 _____O______O_ -1 -17.9000 69.9000 99 9.90000 -17.9000 69.9000 TC 25 17 277
1977347S08097 1978 117 SI MM CELIMENE:SAM 1977-12-22 21:00:00 TS -17.7449 68.9449 main 1202 1117 _____P______P_ -1 -17.7449 68.9449 99 -17.7449 68.9449 TC 25 19 282
1977347S08097 1978 117 SI MM CELIMENE:SAM 1977-12-23 00:00:00 TS -17.5000 67.9000 reunion main 1107 1018 _____O______O_ -1 -17.5000 67.9000 99 9.90000 -17.5000 67.9000 TC 25 21 285
1977347S08097 1978 117 SI MM CELIMENE:SAM 1977-12-23 03:00:00 TS -17.2109 66.8470 main 1008 934 _____P______P_ -1 -17.2109 66.8470 99 -17.2109 66.8470 TC 25 21 287
1977347S08097 1978 117 SI MM CELIMENE:SAM 1977-12-23 06:00:00 TS -16.9000 65.8000 reunion main 924 _____O______O_ -1 -16.9000 65.8000 6 9.90000 -16.9000 65.8000 TC 25 21 287

IBTrACS Databaseについて

本データベースは、米国NOAAが公開する1842年以降の世界の熱帯低気圧のベストトラックデータアーカイブInternational Best Track Archive for Climate Stewardship (IBTrACS)を、ウェブで閲覧しやすい形式に変換したものです。

最終更新日:2021-12-08